createdAt,value
2019-05-06T00:05:47.973Z,1.30
2019-05-06T00:11:49.627Z,1.10
2019-05-06T00:17:51.345Z,1.00
2019-05-06T00:23:54.615Z,0.90
2019-05-06T00:29:56.339Z,0.80
2019-05-06T00:36:00.346Z,0.70
2019-05-06T00:42:04.282Z,0.60
2019-05-06T00:48:05.843Z,0.60
2019-05-06T00:54:14.155Z,0.40
2019-05-06T01:00:18.197Z,0.40
2019-05-06T01:06:19.764Z,0.30
2019-05-06T01:12:21.471Z,0.20
2019-05-06T01:18:24.497Z,0.10
2019-05-06T01:24:26.248Z,0.10
2019-05-06T01:30:27.920Z,0.00
2019-05-06T01:36:29.378Z,-0.10
2019-05-06T01:42:35.771Z,-0.20
2019-05-06T01:48:46.176Z,-0.10
2019-05-06T01:54:47.758Z,-0.20
2019-05-06T02:00:49.422Z,-0.20
2019-05-06T02:06:51.198Z,-0.30
2019-05-06T02:12:54.099Z,-0.30
2019-05-06T02:18:56.631Z,-0.50
2019-05-06T02:25:04.507Z,-0.60
2019-05-06T02:31:25.751Z,-0.60
2019-05-06T02:37:46.425Z,-0.60
2019-05-06T02:43:48.118Z,-0.70
2019-05-06T02:49:53.517Z,-0.80
2019-05-06T02:55:55.955Z,-0.90
2019-05-06T03:01:57.511Z,-0.80
2019-05-06T03:07:59.103Z,-0.70
2019-05-06T03:14:03.086Z,-0.50
2019-05-06T03:20:06.776Z,-0.30
2019-05-06T03:26:09.300Z,-0.10
2019-05-06T03:32:21.472Z,0.10
2019-05-06T03:38:14.421Z,0.20
2019-05-06T03:44:16.685Z,0.20
2019-05-06T03:50:18.643Z,0.20
2019-05-06T03:56:23.611Z,0.10
2019-05-06T04:02:24.338Z,0.00
2019-05-06T04:08:26.459Z,0.10
2019-05-06T04:14:30.112Z,0.30
2019-05-06T04:20:39.379Z,0.70
2019-05-06T04:26:45.980Z,1.00
2019-05-06T04:32:46.658Z,1.10
2019-05-06T04:38:48.346Z,1.30
2019-05-06T04:44:52.943Z,1.60
2019-05-06T04:50:54.058Z,2.00
2019-05-06T04:56:55.989Z,2.30
2019-05-06T05:02:59.089Z,2.60
2019-05-06T05:09:02.763Z,3.00
2019-05-06T05:15:11.854Z,3.30
2019-05-06T05:21:14.553Z,3.60
2019-05-06T05:27:16.404Z,3.70
2019-05-06T05:33:18.462Z,4.00
2019-05-06T05:39:21.823Z,4.20
2019-05-06T05:45:23.726Z,4.30
2019-05-06T05:51:25.586Z,4.50
2019-05-06T05:57:27.286Z,4.60
2019-05-06T06:03:29.067Z,4.70
2019-05-06T06:09:32.916Z,5.00
2019-05-06T06:15:45.599Z,5.20
2019-05-06T06:21:52.405Z,5.70
2019-05-06T06:27:56.010Z,6.00
2019-05-06T06:34:03.122Z,6.50
2019-05-06T06:40:06.410Z,6.90
2019-05-06T06:46:09.386Z,7.40
2019-05-06T06:52:14.592Z,7.90
2019-05-06T06:58:22.876Z,8.30
2019-05-06T07:04:27.885Z,8.50
2019-05-06T07:10:44.816Z,8.80
2019-05-06T07:16:47.885Z,9.10
2019-05-06T07:22:49.664Z,9.60
2019-05-06T07:28:52.683Z,9.60
2019-05-06T07:34:54.580Z,10.10
2019-05-06T07:41:14.445Z,10.00
2019-05-06T07:47:15.886Z,10.10
2019-05-06T07:53:17.738Z,10.10
2019-05-06T07:59:19.493Z,9.90
2019-05-06T08:05:22.399Z,10.00
2019-05-06T08:11:26.121Z,10.50
2019-05-06T08:17:29.666Z,11.10
2019-05-06T08:23:35.933Z,11.20
2019-05-06T08:29:37.653Z,11.00
2019-05-06T08:35:39.586Z,11.40
2019-05-06T08:41:42.314Z,11.10
2019-05-06T08:47:43.857Z,10.90
2019-05-06T08:53:50.217Z,11.30
2019-05-06T08:59:53.640Z,11.30
2019-05-06T09:05:55.386Z,10.60
2019-05-06T09:17:55.090Z,10.70
2019-05-06T09:23:56.864Z,10.80
2019-05-06T09:30:02.832Z,11.70
2019-05-06T09:36:06.344Z,12.10
2019-05-06T09:42:08.230Z,12.20
2019-05-06T09:48:14.750Z,12.70
2019-05-06T09:54:18.316Z,12.60
2019-05-06T10:00:23.331Z,11.90
2019-05-06T10:06:24.383Z,11.20
2019-05-06T10:12:26.299Z,10.90
2019-05-06T10:18:28.083Z,12.20
2019-05-06T10:24:29.611Z,12.80
2019-05-06T10:30:33.175Z,13.10
2019-05-06T10:36:39.852Z,13.10
2019-05-06T10:42:45.318Z,14.10
2019-05-06T10:48:46.910Z,14.20
2019-05-06T10:54:48.459Z,13.30
2019-05-06T11:01:12.476Z,12.40
2019-05-06T11:07:28.268Z,12.50
2019-05-06T11:13:18.194Z,13.00
2019-05-06T11:19:19.866Z,12.80
2019-05-06T11:25:23.045Z,12.70
2019-05-06T11:31:43.257Z,11.90
2019-05-06T11:37:54.359Z,12.40
2019-05-06T11:43:55.942Z,12.70
2019-05-06T11:49:58.197Z,13.40
2019-05-06T11:56:02.064Z,13.40
2019-05-06T12:02:05.622Z,13.20
2019-05-06T12:08:08.167Z,13.10
2019-05-06T12:14:12.211Z,13.50
2019-05-06T12:20:13.634Z,13.50
2019-05-06T12:26:15.312Z,13.10
2019-05-06T12:32:22.440Z,12.50
2019-05-06T12:38:30.447Z,12.50
2019-05-06T12:44:29.150Z,12.50
2019-05-06T12:50:33.060Z,12.80
2019-05-06T12:56:34.283Z,13.80
2019-05-06T13:02:36.040Z,14.70
2019-05-06T13:08:54.060Z,14.60
2019-05-06T13:14:43.038Z,14.00
2019-05-06T13:20:49.946Z,13.70
2019-05-06T13:26:48.031Z,13.20
2019-05-06T13:33:08.066Z,12.70
2019-05-06T13:39:14.669Z,13.00
2019-05-06T13:45:13.682Z,13.40
2019-05-06T13:51:17.239Z,13.80
2019-05-06T13:57:18.869Z,14.30
2019-05-06T14:03:20.559Z,13.70
2019-05-06T14:09:29.529Z,14.20
2019-05-06T14:15:25.614Z,14.70
2019-05-06T14:21:27.257Z,14.80
2019-05-06T14:27:28.962Z,14.90
2019-05-06T14:33:32.331Z,14.80
2019-05-06T14:39:50.222Z,14.50
2019-05-06T14:45:39.445Z,14.30
2019-05-06T14:51:42.613Z,13.80
2019-05-06T14:57:44.497Z,13.60
2019-05-06T15:03:46.204Z,13.40
2019-05-06T15:09:58.446Z,13.10
2019-05-06T15:15:52.958Z,13.00
2019-05-06T15:21:54.539Z,12.70
2019-05-06T15:27:56.006Z,12.40
2019-05-06T15:33:59.498Z,12.30
2019-05-06T15:40:03.048Z,12.00
2019-05-06T15:46:04.285Z,11.80
2019-05-06T15:52:05.847Z,11.40
2019-05-06T15:58:07.389Z,11.10
2019-05-06T16:04:08.916Z,10.90
2019-05-06T16:10:13.126Z,10.60
2019-05-06T16:16:14.276Z,10.60
2019-05-06T16:22:15.927Z,10.80
2019-05-06T16:28:17.594Z,11.00
2019-05-06T16:34:19.251Z,11.00
2019-05-06T16:40:22.984Z,11.20
2019-05-06T16:46:24.384Z,11.30
2019-05-06T16:52:25.985Z,11.30
2019-05-06T16:58:40.071Z,11.60
2019-05-06T17:04:46.561Z,11.70
2019-05-06T17:10:48.075Z,11.70
2019-05-06T17:16:49.564Z,11.60
2019-05-06T17:22:53.166Z,11.40
2019-05-06T17:29:02.695Z,11.40
2019-05-06T17:35:05.578Z,12.80
2019-05-06T17:41:07.204Z,14.00
2019-05-06T17:47:16.316Z,13.30
2019-05-06T17:53:17.870Z,13.40
2019-05-06T17:59:19.391Z,13.20
2019-05-06T18:05:22.843Z,12.10
2019-05-06T18:11:24.407Z,10.80
2019-05-06T18:17:25.943Z,10.20
2019-05-06T18:23:27.738Z,9.90
2019-05-06T18:29:29.189Z,9.60
2019-05-06T18:35:30.708Z,9.40
2019-05-06T18:41:33.179Z,9.20
2019-05-06T18:47:34.683Z,9.00
2019-05-06T18:53:36.329Z,9.00
2019-05-06T18:59:37.871Z,8.80
2019-05-06T19:05:42.947Z,8.80
2019-05-06T19:11:44.900Z,8.70
2019-05-06T19:17:46.610Z,8.70
2019-05-06T19:23:48.096Z,8.70
2019-05-06T19:29:49.792Z,8.80
2019-05-06T19:35:52.361Z,8.80
2019-05-06T19:41:57.233Z,8.80
2019-05-06T19:47:58.640Z,8.90
2019-05-06T19:54:02.101Z,8.80
2019-05-06T20:00:05.593Z,8.50
2019-05-06T20:06:28.850Z,8.30
2019-05-06T20:12:43.386Z,8.20
2019-05-06T20:18:45.029Z,8.00
2019-05-06T20:24:47.711Z,7.90
2019-05-06T20:30:49.256Z,7.90
2019-05-06T20:36:52.841Z,7.80
2019-05-06T20:42:54.151Z,7.80
2019-05-06T20:48:56.005Z,7.70
2019-05-06T20:54:59.467Z,7.70
2019-05-06T21:01:02.891Z,7.60
2019-05-06T21:07:04.264Z,7.60
2019-05-06T21:13:05.802Z,7.50
2019-05-06T21:19:07.292Z,7.50
2019-05-06T21:25:09.073Z,7.40
2019-05-06T21:31:12.488Z,7.50
2019-05-06T21:37:14.001Z,7.40
2019-05-06T21:43:15.586Z,7.30
2019-05-06T21:49:18.462Z,7.30
2019-05-06T21:55:20.144Z,7.20
2019-05-06T22:01:22.275Z,7.10
2019-05-06T22:07:23.821Z,7.10
2019-05-06T22:13:25.433Z,7.00
2019-05-06T22:19:27.005Z,6.70
2019-05-06T22:25:28.615Z,6.80
2019-05-06T22:31:30.288Z,6.70
2019-05-06T22:37:33.149Z,6.70
2019-05-06T22:43:37.938Z,6.70
2019-05-06T22:49:39.874Z,6.70
2019-05-06T22:55:44.046Z,6.60
2019-05-06T23:01:57.382Z,6.80
2019-05-06T23:08:02.671Z,6.70
2019-05-06T23:14:02.856Z,6.70
2019-05-06T23:20:06.475Z,6.70
2019-05-06T23:26:22.910Z,6.70
2019-05-06T23:32:24.564Z,6.70
2019-05-06T23:39:04.879Z,6.90
2019-05-06T23:45:44.117Z,6.90
2019-05-06T23:52:22.790Z,7.00
2019-05-06T23:58:25.182Z,7.10
